Time;durP1;ratioP1;P1;durP2;ratioP2;P2;SDS_P1;SDS_P2;PMS_P1;PMS_P2;Temp;Humidity;BMP_temperature;BMP_pressure;BME280_temperature;BME280_humidity;BME280_pressure;Samples;Min_cycle;Max_cycle;Signal;HPM_P1;HPM_P2
2024/01/20 00:02:06;;;;;;;35.20;21.70;;;;;;;;;;5033349;28;20070;-63
2024/01/20 00:04:32;;;;;;;37.07;21.77;;;;;;;;;;5051507;28;20049;-64
2024/01/20 00:06:58;;;;;;;37.60;20.27;;;;;;;;;;5051203;28;20295;-63
2024/01/20 00:09:24;;;;;;;33.90;21.27;;;;;;;;;;5051474;28;20388;-64
2024/01/20 00:11:50;;;;;;;34.60;20.50;;;;;;;;;;5050680;28;20804;-63
2024/01/20 00:14:16;;;;;;;36.40;22.43;;;;;;;;;;5051248;28;20294;-63
2024/01/20 00:16:42;;;;;;;32.93;21.37;;;;;;;;;;5051302;28;20068;-63
2024/01/20 00:19:08;;;;;;;34.93;21.20;;;;;;;;;;5051752;28;20049;-64
2024/01/20 00:21:34;;;;;;;36.80;22.97;;;;;;;;;;5050644;28;20851;-63
2024/01/20 00:24:00;;;;;;;34.93;20.83;;;;;;;;;;5051106;28;20146;-64
2024/01/20 00:26:26;;;;;;;43.37;24.00;;;;;;;;;;5051040;28;20777;-64
2024/01/20 00:28:52;;;;;;;35.53;22.93;;;;;;;;;;5050071;28;20284;-63
2024/01/20 00:31:18;;;;;;;40.67;23.67;;;;;;;;;;5050833;28;20045;-64
2024/01/20 00:33:44;;;;;;;37.70;22.73;;;;;;;;;;5050848;28;20302;-64
2024/01/20 00:36:10;;;;;;;36.47;24.50;;;;;;;;;;5050900;28;20072;-64
2024/01/20 00:38:39;;;;;;;33.20;23.23;;;;;;;;;;5050647;28;20052;-64
2024/01/20 00:41:05;;;;;;;36.20;24.93;;;;;;;;;;5049682;28;20696;-64
2024/01/20 00:43:32;;;;;;;35.57;23.73;;;;;;;;;;5050851;28;20287;-63
2024/01/20 00:45:58;;;;;;;37.93;22.93;;;;;;;;;;5049101;28;20410;-63
2024/01/20 00:48:24;;;;;;;41.47;24.23;;;;;;;;;;5050509;28;20786;-63
2024/01/20 00:50:51;;;;;;;46.87;25.57;;;;;;;;;;5050199;28;20279;-63
2024/01/20 00:53:17;;;;;;;43.73;23.00;;;;;;;;;;5052777;28;20053;-63
2024/01/20 00:55:43;;;;;;;39.77;24.03;;;;;;;;;;5070228;28;20728;-64
2024/01/20 00:58:10;;;;;;;43.97;24.93;;;;;;;;;;5059921;28;20052;-64
2024/01/20 01:00:36;;;;;;;41.80;24.23;;;;;;;;;;5045109;28;20049;-64
2024/01/20 01:03:03;;;;;;;44.07;26.53;;;;;;;;;;5030717;28;20285;-64
2024/01/20 01:05:29;;;;;;;44.50;27.27;;;;;;;;;;5041288;28;20361;-63
2024/01/20 01:07:56;;;;;;;45.93;27.27;;;;;;;;;;5048366;28;20813;-64
2024/01/20 01:10:22;;;;;;;38.90;26.67;;;;;;;;;;5029628;28;20045;-64
2024/01/20 01:12:49;;;;;;;51.47;27.60;;;;;;;;;;5042200;28;20736;-64
2024/01/20 01:15:15;;;;;;;48.00;26.77;;;;;;;;;;5049295;28;20777;-64
2024/01/20 01:17:41;;;;;;;49.47;28.83;;;;;;;;;;5049163;28;20811;-64
2024/01/20 01:20:08;;;;;;;43.93;27.03;;;;;;;;;;5049742;28;20288;-64
2024/01/20 01:22:34;;;;;;;47.77;27.83;;;;;;;;;;5049234;28;20057;-64
2024/01/20 01:25:00;;;;;;;42.27;26.13;;;;;;;;;;5048433;28;20341;-64
2024/01/20 01:27:26;;;;;;;37.13;24.67;;;;;;;;;;5049188;28;20292;-64
2024/01/20 01:29:52;;;;;;;41.73;25.63;;;;;;;;;;5039838;28;20057;-64
2024/01/20 01:32:19;;;;;;;46.63;24.80;;;;;;;;;;5045796;28;20311;-64
2024/01/20 01:34:45;;;;;;;42.60;28.30;;;;;;;;;;5047737;28;20045;-64
2024/01/20 01:37:11;;;;;;;43.57;26.93;;;;;;;;;;5048169;28;20413;-64
2024/01/20 01:39:37;;;;;;;44.17;26.37;;;;;;;;;;5049501;28;20359;-64
2024/01/20 01:42:03;;;;;;;44.23;26.43;;;;;;;;;;5049502;28;20423;-64
2024/01/20 01:44:29;;;;;;;43.83;28.43;;;;;;;;;;5049875;28;20057;-64
2024/01/20 01:46:56;;;;;;;39.23;25.30;;;;;;;;;;5049104;28;20045;-64
2024/01/20 01:49:22;;;;;;;40.23;26.57;;;;;;;;;;5049405;28;20306;-63
2024/01/20 01:51:50;;;;;;;39.37;27.27;;;;;;;;;;5049441;28;20299;-64
2024/01/20 01:54:18;;;;;;;40.03;24.87;;;;;;;;;;5047544;28;20319;-64
2024/01/20 01:56:46;;;;;;;50.00;28.57;;;;;;;;;;5049317;28;20704;-64
2024/01/20 01:59:13;;;;;;;40.70;28.43;;;;;;;;;;5049123;28;20287;-64
2024/01/20 02:01:39;;;;;;;46.07;28.87;;;;;;;;;;5055110;28;20294;-64
2024/01/20 02:04:05;;;;;;;48.03;29.03;;;;;;;;;;5068682;28;20275;-64
2024/01/20 02:06:31;;;;;;;47.70;26.80;;;;;;;;;;5069138;28;20526;-64
2024/01/20 02:08:58;;;;;;;40.50;27.47;;;;;;;;;;5051805;28;20326;-64
2024/01/20 02:11:25;;;;;;;47.27;26.93;;;;;;;;;;5048800;28;20778;-64
2024/01/20 02:13:51;;;;;;;44.47;25.67;;;;;;;;;;5049026;28;20808;-64
2024/01/20 02:16:17;;;;;;;39.50;27.03;;;;;;;;;;5049040;28;20295;-63
2024/01/20 02:18:43;;;;;;;38.87;26.53;;;;;;;;;;5053925;28;20297;-64
2024/01/20 02:21:09;;;;;;;41.73;27.43;;;;;;;;;;5068895;28;20282;-64
2024/01/20 02:23:39;;;;;;;45.00;27.60;;;;;;;;;;5068907;28;20282;-64
2024/01/20 02:26:05;;;;;;;52.90;29.07;;;;;;;;;;5068788;28;20091;-64
2024/01/20 02:28:31;;;;;;;41.83;26.00;;;;;;;;;;5069138;28;20283;-64
2024/01/20 02:30:57;;;;;;;38.37;26.37;;;;;;;;;;5068266;28;20283;-64
2024/01/20 02:33:23;;;;;;;44.30;28.20;;;;;;;;;;5051509;28;20307;-64
2024/01/20 02:35:49;;;;;;;44.57;28.63;;;;;;;;;;5049331;28;20645;-64
2024/01/20 02:38:15;;;;;;;47.70;28.17;;;;;;;;;;5048505;28;20428;-64
2024/01/20 02:40:41;;;;;;;46.07;30.90;;;;;;;;;;5047798;28;20722;-64
2024/01/20 02:43:07;;;;;;;50.37;29.27;;;;;;;;;;5029670;28;20052;-64
2024/01/20 02:45:33;;;;;;;43.57;30.03;;;;;;;;;;5047555;28;20049;-64
2024/01/20 02:47:59;;;;;;;48.40;29.43;;;;;;;;;;5047826;28;20077;-64
2024/01/20 02:50:25;;;;;;;41.70;28.03;;;;;;;;;;5047998;28;20499;-64
2024/01/20 02:52:52;;;;;;;49.83;26.80;;;;;;;;;;5047712;28;20369;-64
2024/01/20 02:55:18;;;;;;;47.97;29.07;;;;;;;;;;5047833;28;20094;-64
2024/01/20 02:57:44;;;;;;;45.93;29.23;;;;;;;;;;5046261;28;20696;-64
2024/01/20 03:00:10;;;;;;;48.97;29.37;;;;;;;;;;5046930;28;20052;-64
2024/01/20 03:02:36;;;;;;;50.13;28.60;;;;;;;;;;5048427;28;20371;-64
2024/01/20 03:05:02;;;;;;;50.60;29.10;;;;;;;;;;5048279;28;20359;-64
2024/01/20 03:07:28;;;;;;;50.27;31.23;;;;;;;;;;5048026;28;20781;-64
2024/01/20 03:09:55;;;;;;;44.67;27.20;;;;;;;;;;5048228;28;20341;-64
2024/01/20 03:12:21;;;;;;;48.83;30.17;;;;;;;;;;5048596;28;20049;-64
2024/01/20 03:14:47;;;;;;;47.90;28.60;;;;;;;;;;5048189;28;20288;-64
2024/01/20 03:17:13;;;;;;;53.30;30.67;;;;;;;;;;5047973;28;20357;-64
2024/01/20 03:19:39;;;;;;;56.00;27.93;;;;;;;;;;5047852;28;20037;-64
2024/01/20 03:22:05;;;;;;;51.33;30.20;;;;;;;;;;5048230;28;20102;-64
2024/01/20 03:24:31;;;;;;;47.80;29.73;;;;;;;;;;5048065;28;20279;-64
2024/01/20 03:26:57;;;;;;;54.67;31.10;;;;;;;;;;5056208;28;20052;-64
2024/01/20 03:29:23;;;;;;;52.03;29.60;;;;;;;;;;5068497;28;20274;-64
2024/01/20 03:31:49;;;;;;;53.50;26.57;;;;;;;;;;5071575;28;20102;-64
2024/01/20 03:34:15;;;;;;;49.87;28.53;;;;;;;;;;5071829;28;20760;-64
2024/01/20 03:36:42;;;;;;;47.87;29.87;;;;;;;;;;5070830;28;20126;-64
2024/01/20 03:39:08;;;;;;;53.17;27.90;;;;;;;;;;5071522;28;20712;-64
2024/01/20 03:41:34;;;;;;;53.03;32.60;;;;;;;;;;5071975;28;20295;-64
2024/01/20 03:44:00;;;;;;;57.77;31.67;;;;;;;;;;5071186;28;20318;-64
2024/01/20 03:46:26;;;;;;;53.47;31.00;;;;;;;;;;5071050;28;20287;-64
2024/01/20 03:48:52;;;;;;;51.57;29.70;;;;;;;;;;5071505;28;20287;-64
2024/01/20 03:51:18;;;;;;;54.10;28.33;;;;;;;;;;5071747;28;20315;-64
2024/01/20 03:53:44;;;;;;;59.57;31.17;;;;;;;;;;5063684;28;20381;-64
2024/01/20 03:56:10;;;;;;;48.03;27.03;;;;;;;;;;5051732;28;20060;-64
2024/01/20 03:58:37;;;;;;;57.07;28.00;;;;;;;;;;5052212;28;20041;-64
2024/01/20 04:01:04;;;;;;;54.57;28.13;;;;;;;;;;5052130;28;20056;-64
2024/01/20 04:03:30;;;;;;;50.43;27.93;;;;;;;;;;5051429;28;20276;-64
2024/01/20 04:05:56;;;;;;;54.27;28.07;;;;;;;;;;5051221;28;20286;-64
2024/01/20 04:08:21;;;;;;;60.60;28.73;;;;;;;;;;5050021;28;20048;-64
2024/01/20 04:10:48;;;;;;;56.33;28.13;;;;;;;;;;5049744;28;20138;-64
2024/01/20 04:13:14;;;;;;;66.67;30.10;;;;;;;;;;5049189;28;21559;-64
2024/01/20 04:15:40;;;;;;;58.17;29.70;;;;;;;;;;5051065;28;20298;-64
2024/01/20 04:18:06;;;;;;;56.90;30.50;;;;;;;;;;5059985;28;20294;-64
2024/01/20 04:20:32;;;;;;;69.00;31.97;;;;;;;;;;5056947;28;20421;-64
2024/01/20 04:22:58;;;;;;;62.17;29.47;;;;;;;;;;5050989;28;20037;-64
2024/01/20 04:25:24;;;;;;;64.33;30.47;;;;;;;;;;5051039;28;20063;-64
2024/01/20 04:27:49;;;;;;;61.53;29.90;;;;;;;;;;5049439;28;20044;-64
2024/01/20 04:30:15;;;;;;;64.80;28.13;;;;;;;;;;5049313;28;20059;-64
2024/01/20 04:32:41;;;;;;;62.17;34.30;;;;;;;;;;5049991;28;20041;-64
2024/01/20 04:35:08;;;;;;;68.73;31.80;;;;;;;;;;5059928;28;20146;-64
2024/01/20 04:37:34;;;;;;;71.83;35.53;;;;;;;;;;5061489;28;20041;-64
2024/01/20 04:40:00;;;;;;;73.30;34.00;;;;;;;;;;5050715;28;20713;-64
2024/01/20 04:42:26;;;;;;;78.93;33.90;;;;;;;;;;5049917;28;20658;-64
2024/01/20 04:44:52;;;;;;;77.50;33.90;;;;;;;;;;5050735;28;20288;-64
2024/01/20 04:47:18;;;;;;;71.40;34.70;;;;;;;;;;5050865;28;20283;-64
2024/01/20 04:49:44;;;;;;;76.83;34.87;;;;;;;;;;5040995;28;20515;-64
2024/01/20 04:52:10;;;;;;;73.40;36.70;;;;;;;;;;5041752;28;20307;-64
2024/01/20 04:54:36;;;;;;;69.77;34.57;;;;;;;;;;5050407;28;20052;-64
2024/01/20 04:57:02;;;;;;;72.20;35.20;;;;;;;;;;5050223;28;20279;-64
2024/01/20 04:59:28;;;;;;;79.30;33.87;;;;;;;;;;5050450;28;20049;-64
2024/01/20 05:01:54;;;;;;;73.93;37.40;;;;;;;;;;5049927;28;20275;-64
2024/01/20 05:04:20;;;;;;;78.87;31.90;;;;;;;;;;5050462;28;20287;-64
2024/01/20 05:06:46;;;;;;;82.03;33.43;;;;;;;;;;5050024;28;20280;-64
2024/01/20 05:09:13;;;;;;;84.00;35.07;;;;;;;;;;5050898;28;20095;-64
2024/01/20 05:11:39;;;;;;;78.90;36.97;;;;;;;;;;5049838;28;20303;-64
2024/01/20 05:14:05;;;;;;;77.33;35.07;;;;;;;;;;5050299;28;20346;-64
2024/01/20 05:16:31;;;;;;;77.17;34.83;;;;;;;;;;5050085;28;20804;-64
2024/01/20 05:18:57;;;;;;;73.37;32.50;;;;;;;;;;5050020;28;20361;-64
2024/01/20 05:21:23;;;;;;;76.83;36.17;;;;;;;;;;5050285;28;20280;-64
2024/01/20 05:23:49;;;;;;;71.43;35.23;;;;;;;;;;5049817;28;20359;-64
2024/01/20 05:26:16;;;;;;;76.03;34.87;;;;;;;;;;5050174;28;20307;-64
2024/01/20 05:28:42;;;;;;;79.33;32.77;;;;;;;;;;5048577;28;20053;-64
2024/01/20 05:31:08;;;;;;;76.20;34.47;;;;;;;;;;5048695;28;20844;-64
2024/01/20 05:33:34;;;;;;;86.80;34.40;;;;;;;;;;5049015;28;20346;-64
2024/01/20 05:36:00;;;;;;;78.67;34.80;;;;;;;;;;5048871;28;20323;-64
2024/01/20 05:38:26;;;;;;;81.00;33.07;;;;;;;;;;5049534;28;20159;-64
2024/01/20 05:40:52;;;;;;;74.90;34.27;;;;;;;;;;5049295;28;20049;-64
2024/01/20 05:43:18;;;;;;;72.77;31.00;;;;;;;;;;5049526;28;20052;-64
2024/01/20 05:45:44;;;;;;;75.67;32.80;;;;;;;;;;5048325;28;20295;-64
2024/01/20 05:48:10;;;;;;;79.70;33.27;;;;;;;;;;5048559;28;20299;-64
2024/01/20 05:50:36;;;;;;;67.93;31.87;;;;;;;;;;5048776;28;20283;-64
2024/01/20 05:53:02;;;;;;;77.23;36.50;;;;;;;;;;5048360;28;20085;-64
2024/01/20 05:55:28;;;;;;;70.37;31.10;;;;;;;;;;5029984;28;20080;-64
2024/01/20 05:57:54;;;;;;;71.57;32.30;;;;;;;;;;5046996;28;20348;-64
2024/01/20 06:00:21;;;;;;;71.40;35.03;;;;;;;;;;5048527;28;20306;-64
2024/01/20 06:02:47;;;;;;;67.17;28.63;;;;;;;;;;5049237;28;20324;-64
2024/01/20 06:05:14;;;;;;;76.07;30.87;;;;;;;;;;5035447;28;20296;-65
2024/01/20 06:07:40;;;;;;;67.30;31.70;;;;;;;;;;5044897;28;20303;-65
2024/01/20 06:10:06;;;;;;;66.20;34.03;;;;;;;;;;5048898;28;20528;-64
2024/01/20 06:12:32;;;;;;;68.30;29.13;;;;;;;;;;5048246;28;20072;-64
2024/01/20 06:15:00;;;;;;;72.03;30.23;;;;;;;;;;5048666;28;20769;-64
2024/01/20 06:17:26;;;;;;;80.00;31.97;;;;;;;;;;5047502;28;20084;-64
2024/01/20 06:19:53;;;;;;;70.33;31.43;;;;;;;;;;5036155;28;20348;-64
2024/01/20 06:22:19;;;;;;;63.83;30.73;;;;;;;;;;5028636;28;20295;-64
2024/01/20 06:24:45;;;;;;;66.77;29.17;;;;;;;;;;5028877;28;20294;-64
2024/01/20 06:27:11;;;;;;;73.27;32.50;;;;;;;;;;5041291;28;20362;-65
2024/01/20 06:29:43;;;;;;;65.53;31.07;;;;;;;;;;5047605;28;20033;-65
2024/01/20 06:32:10;;;;;;;69.03;28.80;;;;;;;;;;5047948;28;20087;-64
2024/01/20 06:34:36;;;;;;;65.83;29.10;;;;;;;;;;5060039;28;20049;-64
2024/01/20 06:37:02;;;;;;;66.40;28.77;;;;;;;;;;5048656;28;20286;-64
2024/01/20 06:39:28;;;;;;;73.57;30.23;;;;;;;;;;5048603;28;20479;-64
2024/01/20 06:41:54;;;;;;;69.33;28.70;;;;;;;;;;5048743;28;20769;-64
2024/01/20 06:44:22;;;;;;;75.70;30.00;;;;;;;;;;5046810;28;20570;-65
2024/01/20 06:46:48;;;;;;;78.57;31.93;;;;;;;;;;5048542;28;20052;-64
2024/01/20 06:49:14;;;;;;;69.43;28.90;;;;;;;;;;5048404;28;20292;-64
2024/01/20 06:51:43;;;;;;;67.87;30.30;;;;;;;;;;5048826;28;20697;-64
2024/01/20 06:54:09;;;;;;;72.13;31.20;;;;;;;;;;5047975;28;20323;-64
2024/01/20 06:56:35;;;;;;;77.00;31.80;;;;;;;;;;5048508;28;20796;-64
2024/01/20 06:59:01;;;;;;;73.60;31.53;;;;;;;;;;5048212;28;20835;-64
2024/01/20 07:01:27;;;;;;;71.10;32.23;;;;;;;;;;5048343;28;20778;-64
2024/01/20 07:03:53;;;;;;;78.23;33.43;;;;;;;;;;5047204;28;20290;-65
2024/01/20 07:06:25;;;;;;;68.87;30.80;;;;;;;;;;5047759;28;20325;-64
2024/01/20 07:08:51;;;;;;;69.57;32.77;;;;;;;;;;5048667;28;20280;-64
2024/01/20 07:11:17;;;;;;;72.07;31.27;;;;;;;;;;5048457;28;20375;-65
2024/01/20 07:13:43;;;;;;;69.43;31.30;;;;;;;;;;5048260;28;20390;-64
2024/01/20 07:16:13;;;;;;;71.87;30.27;;;;;;;;;;5048266;28;20128;-64
2024/01/20 07:18:39;;;;;;;66.97;30.40;;;;;;;;;;5048478;28;20366;-65
2024/01/20 07:21:06;;;;;;;77.33;32.30;;;;;;;;;;5047982;28;20290;-65
2024/01/20 07:23:32;;;;;;;71.00;31.00;;;;;;;;;;5047916;28;20609;-64
2024/01/20 07:25:58;;;;;;;71.60;29.80;;;;;;;;;;5064399;28;20349;-65
2024/01/20 07:28:27;;;;;;;73.70;29.47;;;;;;;;;;5067882;28;20332;-65
2024/01/20 07:30:54;;;;;;;77.33;31.60;;;;;;;;;;5047613;28;20821;-65
2024/01/20 07:33:20;;;;;;;72.03;32.80;;;;;;;;;;5044556;28;20318;-64
2024/01/20 07:35:46;;;;;;;73.37;29.80;;;;;;;;;;5047696;28;20302;-64
2024/01/20 07:38:12;;;;;;;75.17;30.17;;;;;;;;;;5047939;28;20789;-65
2024/01/20 07:40:39;;;;;;;79.63;33.37;;;;;;;;;;5047498;28;20300;-65
2024/01/20 07:43:05;;;;;;;78.47;34.03;;;;;;;;;;5048193;28;20288;-64
2024/01/20 07:45:31;;;;;;;78.73;34.60;;;;;;;;;;5047379;28;20282;-64
2024/01/20 07:47:58;;;;;;;79.50;30.67;;;;;;;;;;5047563;28;20394;-64
2024/01/20 07:50:24;;;;;;;78.03;30.10;;;;;;;;;;5047591;28;20370;-64
2024/01/20 07:52:50;;;;;;;75.57;32.73;;;;;;;;;;5047879;28;20382;-64
2024/01/20 07:55:16;;;;;;;78.70;33.37;;;;;;;;;;5047323;28;20063;-64
2024/01/20 07:57:42;;;;;;;83.03;32.47;;;;;;;;;;5047644;28;20496;-64
2024/01/20 08:00:10;;;;;;;75.83;29.90;;;;;;;;;;5065396;28;20298;-65
2024/01/20 08:02:36;;;;;;;71.60;28.10;;;;;;;;;;5067643;28;20289;-64
2024/01/20 08:05:02;;;;;;;78.23;29.50;;;;;;;;;;5067542;28;20286;-64
2024/01/20 08:07:28;;;;;;;64.43;26.53;;;;;;;;;;5067611;28;20341;-64
2024/01/20 08:09:54;;;;;;;74.07;30.83;;;;;;;;;;5067278;28;20279;-65
2024/01/20 08:12:20;;;;;;;61.93;26.87;;;;;;;;;;5067497;28;20052;-64
2024/01/20 08:14:46;;;;;;;72.30;28.37;;;;;;;;;;5067865;28;20279;-64
2024/01/20 08:17:12;;;;;;;62.23;28.77;;;;;;;;;;5067850;28;20580;-64
2024/01/20 08:19:38;;;;;;;72.03;32.33;;;;;;;;;;5070859;28;20041;-64
2024/01/20 08:22:06;;;;;;;63.63;27.63;;;;;;;;;;5071003;28;20789;-64
2024/01/20 08:24:32;;;;;;;57.90;27.00;;;;;;;;;;5069241;28;20600;-64
2024/01/20 08:26:58;;;;;;;72.40;32.10;;;;;;;;;;5070552;28;20286;-64
2024/01/20 08:29:24;;;;;;;60.83;30.00;;;;;;;;;;5054106;28;20041;-64
2024/01/20 08:31:50;;;;;;;62.93;28.47;;;;;;;;;;5050258;28;20522;-64
2024/01/20 08:34:16;;;;;;;56.87;29.20;;;;;;;;;;5051255;28;20045;-64
2024/01/20 08:36:42;;;;;;;54.80;26.30;;;;;;;;;;5050446;28;20045;-64
2024/01/20 08:39:08;;;;;;;49.77;26.10;;;;;;;;;;5029430;28;20784;-64
2024/01/20 08:41:34;;;;;;;56.20;27.03;;;;;;;;;;5049536;28;20052;-64
2024/01/20 08:44:00;;;;;;;56.87;25.77;;;;;;;;;;5048490;28;20045;-64
2024/01/20 08:46:26;;;;;;;54.30;26.17;;;;;;;;;;5042644;28;20334;-64
2024/01/20 08:48:52;;;;;;;55.10;24.43;;;;;;;;;;5048272;28;20371;-63
2024/01/20 08:51:19;;;;;;;48.93;23.47;;;;;;;;;;5048841;28;20774;-64
2024/01/20 08:53:45;;;;;;;47.00;23.83;;;;;;;;;;5048976;28;20410;-64
2024/01/20 08:56:11;;;;;;;52.40;24.73;;;;;;;;;;5048073;28;20299;-64
2024/01/20 08:58:37;;;;;;;45.73;21.87;;;;;;;;;;5049089;28;20374;-63
2024/01/20 09:01:03;;;;;;;46.03;23.60;;;;;;;;;;5050354;28;20288;-64
2024/01/20 09:03:29;;;;;;;47.00;23.13;;;;;;;;;;5049561;28;20321;-63
2024/01/20 09:05:55;;;;;;;50.70;25.07;;;;;;;;;;5048439;28;20410;-63
2024/01/20 09:08:21;;;;;;;49.40;24.20;;;;;;;;;;5047735;28;20518;-63
2024/01/20 09:10:47;;;;;;;47.37;22.67;;;;;;;;;;5046904;28;20044;-63
2024/01/20 09:13:13;;;;;;;43.20;22.27;;;;;;;;;;5048662;28;20311;-63
2024/01/20 09:15:39;;;;;;;50.53;22.57;;;;;;;;;;5048616;28;20211;-63
2024/01/20 09:18:05;;;;;;;52.70;24.93;;;;;;;;;;5050081;28;20402;-63
2024/01/20 09:20:31;;;;;;;43.63;22.70;;;;;;;;;;5048341;28;20384;-63
2024/01/20 09:22:57;;;;;;;43.90;22.60;;;;;;;;;;5049669;28;20041;-63
2024/01/20 09:25:23;;;;;;;50.63;23.57;;;;;;;;;;5049160;28;20095;-63
2024/01/20 09:27:49;;;;;;;47.17;22.47;;;;;;;;;;5048373;28;20372;-63
2024/01/20 09:30:16;;;;;;;47.63;21.47;;;;;;;;;;5048062;28;20279;-63
2024/01/20 09:32:42;;;;;;;44.33;21.33;;;;;;;;;;5046651;28;20319;-63
2024/01/20 09:35:08;;;;;;;39.50;22.03;;;;;;;;;;5049047;28;20363;-63
2024/01/20 09:37:36;;;;;;;44.83;21.30;;;;;;;;;;5044880;28;20287;-63
2024/01/20 09:40:03;;;;;;;37.27;21.17;;;;;;;;;;5046592;28;20315;-63
2024/01/20 09:42:29;;;;;;;43.17;22.83;;;;;;;;;;5047906;28;20798;-63
2024/01/20 09:44:56;;;;;;;44.10;21.13;;;;;;;;;;5046260;28;20738;-63
2024/01/20 09:47:22;;;;;;;39.33;18.40;;;;;;;;;;5046316;28;20390;-63
2024/01/20 09:49:48;;;;;;;41.03;20.97;;;;;;;;;;5047342;28;20036;-63
2024/01/20 09:52:18;;;;;;;39.67;20.47;;;;;;;;;;5046863;28;20157;-63
2024/01/20 09:54:54;;;;;;;40.23;20.33;;;;;;;;;;5048066;28;20380;-63
2024/01/20 09:57:21;;;;;;;37.10;21.93;;;;;;;;;;5049355;28;20646;-63
2024/01/20 09:59:48;;;;;;;43.33;21.47;;;;;;;;;;5048668;28;20052;-63
2024/01/20 10:02:14;;;;;;;46.53;21.73;;;;;;;;;;5048608;28;20037;-63
2024/01/20 10:04:42;;;;;;;40.13;21.17;;;;;;;;;;5049098;28;20045;-63
2024/01/20 10:07:08;;;;;;;42.43;21.20;;;;;;;;;;5047036;28;20522;-63
2024/01/20 10:09:34;;;;;;;39.00;19.20;;;;;;;;;;5048062;28;20300;-63
2024/01/20 10:12:00;;;;;;;40.60;22.33;;;;;;;;;;5047487;28;20043;-63
2024/01/20 10:14:26;;;;;;;37.20;21.00;;;;;;;;;;5043561;28;20700;-63
2024/01/20 10:16:52;;;;;;;37.43;20.60;;;;;;;;;;5045281;28;20045;-63
2024/01/20 10:19:19;;;;;;;41.17;20.57;;;;;;;;;;5047557;28;20507;-63
2024/01/20 10:21:45;;;;;;;39.50;20.67;;;;;;;;;;5047769;28;20287;-63
2024/01/20 10:24:11;;;;;;;36.73;20.73;;;;;;;;;;5048252;28;20411;-63
2024/01/20 10:26:43;;;;;;;39.97;18.50;;;;;;;;;;5047625;28;20045;-63
2024/01/20 10:29:09;;;;;;;33.47;18.33;;;;;;;;;;5047407;28;20080;-63
2024/01/20 10:31:36;;;;;;;35.63;19.87;;;;;;;;;;5045293;28;20295;-63
2024/01/20 10:34:02;;;;;;;38.97;21.37;;;;;;;;;;5045176;28;20047;-63
2024/01/20 10:36:28;;;;;;;37.37;21.47;;;;;;;;;;5046578;28;20048;-63
2024/01/20 10:38:54;;;;;;;35.73;19.17;;;;;;;;;;5046217;28;20045;-63
2024/01/20 10:41:24;;;;;;;33.10;18.43;;;;;;;;;;5046533;28;20201;-63
2024/01/20 10:43:55;;;;;;;36.43;18.13;;;;;;;;;;5046916;28;20475;-63
2024/01/20 10:46:29;;;;;;;36.23;17.87;;;;;;;;;;5047035;28;20045;-63
2024/01/20 10:48:57;;;;;;;36.00;18.47;;;;;;;;;;5046763;28;20499;-63
2024/01/20 10:51:29;;;;;;;36.53;21.77;;;;;;;;;;5047032;28;20045;-63
2024/01/20 10:53:56;;;;;;;32.80;17.13;;;;;;;;;;5046553;28;20048;-63
2024/01/20 10:56:24;;;;;;;37.57;19.53;;;;;;;;;;5047492;28;20049;-63
2024/01/20 10:59:08;;;;;;;31.63;19.40;;;;;;;;;;5046265;28;20049;-63
2024/01/20 11:01:35;;;;;;;34.83;17.30;;;;;;;;;;5047860;28;20131;-63
2024/01/20 11:04:01;;;;;;;32.43;17.20;;;;;;;;;;5048082;28;20049;-63
2024/01/20 11:06:27;;;;;;;35.87;19.03;;;;;;;;;;5048397;28;20063;-63
2024/01/20 11:08:53;;;;;;;36.83;20.37;;;;;;;;;;5048392;28;20124;-63
2024/01/20 11:11:20;;;;;;;35.67;18.20;;;;;;;;;;5048220;28;20210;-63
2024/01/20 11:13:47;;;;;;;38.33;20.33;;;;;;;;;;5048125;28;20127;-63
2024/01/20 11:16:22;;;;;;;43.40;20.07;;;;;;;;;;5048157;28;20043;-63
2024/01/20 11:18:48;;;;;;;37.00;17.27;;;;;;;;;;5048223;28;20117;-63
2024/01/20 11:21:19;;;;;;;35.63;20.53;;;;;;;;;;5048206;28;20056;-63
2024/01/20 11:24:06;;;;;;;36.70;18.00;;;;;;;;;;5048677;28;20057;-63
2024/01/20 11:26:35;;;;;;;34.93;18.60;;;;;;;;;;5047780;28;20059;-63
2024/01/20 11:29:02;;;;;;;35.67;18.43;;;;;;;;;;5048207;28;20133;-63
2024/01/20 11:31:32;;;;;;;35.63;19.60;;;;;;;;;;5048359;28;20103;-63
2024/01/20 11:33:59;;;;;;;31.60;17.23;;;;;;;;;;5047906;28;20045;-63
2024/01/20 11:36:29;;;;;;;32.33;17.93;;;;;;;;;;5048480;28;20099;-63
2024/01/20 11:38:57;;;;;;;34.77;18.50;;;;;;;;;;5047489;28;20049;-63
2024/01/20 11:41:23;;;;;;;35.37;17.83;;;;;;;;;;5048185;28;20142;-63
2024/01/20 11:43:49;;;;;;;35.47;19.70;;;;;;;;;;5047620;28;20056;-63
2024/01/20 11:46:15;;;;;;;35.57;18.17;;;;;;;;;;5048056;28;20060;-63
2024/01/20 11:48:46;;;;;;;31.83;17.87;;;;;;;;;;5048117;28;20053;-63
2024/01/20 11:51:12;;;;;;;38.67;19.00;;;;;;;;;;5049234;28;20120;-63
2024/01/20 11:53:38;;;;;;;35.43;19.07;;;;;;;;;;5051417;28;20513;-63
2024/01/20 11:56:05;;;;;;;34.77;17.10;;;;;;;;;;5051527;28;20049;-63
2024/01/20 11:58:31;;;;;;;32.50;18.13;;;;;;;;;;5051210;28;20495;-63
2024/01/20 12:00:58;;;;;;;32.03;15.43;;;;;;;;;;5051743;28;20052;-63
2024/01/20 12:03:25;;;;;;;31.23;17.57;;;;;;;;;;5051817;28;20148;-63
2024/01/20 12:05:51;;;;;;;33.87;19.07;;;;;;;;;;5050859;28;20392;-63
2024/01/20 12:08:18;;;;;;;30.07;16.73;;;;;;;;;;5050255;28;20045;-63
2024/01/20 12:10:45;;;;;;;33.43;18.63;;;;;;;;;;5051515;28;20107;-63
2024/01/20 12:13:15;;;;;;;27.27;16.17;;;;;;;;;;5051080;28;20052;-63
2024/01/20 12:15:42;;;;;;;32.73;17.50;;;;;;;;;;5051354;28;20126;-63
2024/01/20 12:18:08;;;;;;;28.77;16.20;;;;;;;;;;5050872;28;20055;-63
2024/01/20 12:20:34;;;;;;;28.43;16.60;;;;;;;;;;5051259;28;20055;-63
2024/01/20 12:23:01;;;;;;;31.90;18.03;;;;;;;;;;5051240;28;20563;-63
2024/01/20 12:25:27;;;;;;;28.77;17.50;;;;;;;;;;5051253;28;20041;-63
2024/01/20 12:27:53;;;;;;;26.87;15.13;;;;;;;;;;5050627;28;20037;-63
2024/01/20 12:30:20;;;;;;;26.67;14.23;;;;;;;;;;5051093;28;20067;-63
2024/01/20 12:32:46;;;;;;;32.87;16.87;;;;;;;;;;5051214;28;20061;-63
2024/01/20 12:35:12;;;;;;;26.73;15.27;;;;;;;;;;5050239;28;20049;-63
2024/01/20 12:37:39;;;;;;;29.07;17.37;;;;;;;;;;5050832;28;20099;-63
2024/01/20 12:40:08;;;;;;;27.77;15.13;;;;;;;;;;5050943;28;20151;-63
2024/01/20 12:42:35;;;;;;;28.03;16.47;;;;;;;;;;5050557;28;20099;-63
2024/01/20 12:45:01;;;;;;;28.80;15.87;;;;;;;;;;5050142;28;20525;-63
2024/01/20 12:47:27;;;;;;;26.43;16.43;;;;;;;;;;5050652;28;20048;-63
2024/01/20 12:49:53;;;;;;;29.40;16.33;;;;;;;;;;5050793;28;20483;-63
2024/01/20 12:52:19;;;;;;;27.27;15.97;;;;;;;;;;5050702;28;21027;-63
2024/01/20 12:54:45;;;;;;;22.37;13.83;;;;;;;;;;5050440;28;20072;-63
2024/01/20 12:57:11;;;;;;;23.20;14.50;;;;;;;;;;5050455;28;20871;-63
2024/01/20 12:59:37;;;;;;;22.83;14.47;;;;;;;;;;5050289;28;20041;-63
2024/01/20 13:02:03;;;;;;;26.60;15.13;;;;;;;;;;5049934;28;20037;-63
2024/01/20 13:04:29;;;;;;;27.37;16.30;;;;;;;;;;5050320;28;20040;-63
2024/01/20 13:06:55;;;;;;;29.43;16.33;;;;;;;;;;5050505;28;20083;-63
2024/01/20 13:09:24;;;;;;;26.73;14.07;;;;;;;;;;5049774;28;20422;-63
2024/01/20 13:11:50;;;;;;;24.20;13.77;;;;;;;;;;5050196;28;20102;-63
2024/01/20 13:14:16;;;;;;;25.20;14.43;;;;;;;;;;5050470;28;20045;-63
2024/01/20 13:16:42;;;;;;;25.87;14.53;;;;;;;;;;5050109;28;20127;-63
2024/01/20 13:19:08;;;;;;;25.30;14.27;;;;;;;;;;5050218;28;20471;-63
2024/01/20 13:21:34;;;;;;;24.70;15.27;;;;;;;;;;5050003;28;20051;-63
2024/01/20 13:24:00;;;;;;;24.20;15.07;;;;;;;;;;5049932;28;20140;-64
2024/01/20 13:26:26;;;;;;;24.27;14.73;;;;;;;;;;5049973;28;20045;-63
2024/01/20 13:28:53;;;;;;;26.10;15.10;;;;;;;;;;5049889;28;20374;-63
2024/01/20 13:31:20;;;;;;;21.90;13.80;;;;;;;;;;5049918;28;20057;-63
2024/01/20 13:33:46;;;;;;;21.10;13.50;;;;;;;;;;5048259;28;20088;-63
2024/01/20 13:36:12;;;;;;;21.50;12.53;;;;;;;;;;5049851;28;20404;-63
2024/01/20 13:38:38;;;;;;;21.83;13.17;;;;;;;;;;5049897;28;20403;-63
2024/01/20 13:41:07;;;;;;;21.43;13.43;;;;;;;;;;5049494;28;20483;-63
2024/01/20 13:43:33;;;;;;;19.47;13.07;;;;;;;;;;5049634;28;20041;-63
2024/01/20 13:45:59;;;;;;;22.30;12.50;;;;;;;;;;5049168;28;20058;-63
2024/01/20 13:48:25;;;;;;;18.63;11.90;;;;;;;;;;5049658;28;20188;-63
2024/01/20 13:50:51;;;;;;;20.57;13.37;;;;;;;;;;5049557;28;20136;-63
2024/01/20 13:53:17;;;;;;;19.50;12.17;;;;;;;;;;5049517;28;20056;-63
2024/01/20 13:55:43;;;;;;;20.90;12.83;;;;;;;;;;5048999;28;20064;-63
2024/01/20 13:58:09;;;;;;;20.00;12.47;;;;;;;;;;5049579;28;20072;-63
2024/01/20 14:00:35;;;;;;;22.13;12.53;;;;;;;;;;5049278;28;20037;-63
2024/01/20 14:03:01;;;;;;;22.10;13.17;;;;;;;;;;5049460;28;20119;-63
2024/01/20 14:05:27;;;;;;;20.50;14.43;;;;;;;;;;5049340;28;20041;-63
2024/01/20 14:07:53;;;;;;;21.07;12.93;;;;;;;;;;5049069;28;20132;-63
2024/01/20 14:10:19;;;;;;;23.77;13.27;;;;;;;;;;5049148;28;20043;-63
2024/01/20 14:12:46;;;;;;;21.43;13.67;;;;;;;;;;5049265;28;20041;-63